createdAt,value
2022-09-09T00:04:30.190Z,98723.49
2022-09-09T00:09:49.816Z,98734.23
2022-09-09T00:15:01.662Z,98736.70
2022-09-09T00:21:00.568Z,98737.02
2022-09-09T00:26:16.786Z,98736.77
2022-09-09T00:31:28.980Z,98735.91
2022-09-09T00:36:38.349Z,98736.23
2022-09-09T00:41:58.507Z,98733.07
2022-09-09T00:47:19.832Z,98735.80
2022-09-09T00:52:38.748Z,98749.17
2022-09-09T00:57:47.382Z,98752.02
2022-09-09T01:03:05.048Z,98753.35
2022-09-09T01:08:22.890Z,98756.67
2022-09-09T01:13:32.722Z,98761.21
2022-09-09T01:18:43.043Z,98765.05
2022-09-09T01:24:16.194Z,98764.19
2022-09-09T01:29:25.509Z,98771.42
2022-09-09T01:34:39.594Z,98776.45
2022-09-09T01:39:47.321Z,98779.64
2022-09-09T01:44:55.491Z,98793.86
2022-09-09T01:50:03.897Z,98794.38
2022-09-09T01:55:15.314Z,98793.10
2022-09-09T02:00:22.207Z,98795.52
2022-09-09T02:05:38.139Z,98801.30
2022-09-09T02:10:53.028Z,98807.89
2022-09-09T02:16:09.297Z,98811.88
2022-09-09T02:21:19.344Z,98824.91
2022-09-09T02:26:28.369Z,98828.67
2022-09-09T02:31:38.112Z,98827.96
2022-09-09T02:36:46.717Z,98830.77
2022-09-09T02:41:53.948Z,98842.23
2022-09-09T02:47:18.363Z,98842.33
2022-09-09T02:52:35.106Z,98848.40
2022-09-09T02:57:41.639Z,98852.64
2022-09-09T03:02:48.785Z,98857.34
2022-09-09T03:07:56.169Z,98860.34
2022-09-09T03:13:03.488Z,98867.08
2022-09-09T03:18:10.706Z,98870.47
2022-09-09T03:23:18.101Z,98874.94
2022-09-09T03:28:32.595Z,98866.05
2022-09-09T03:33:39.848Z,98862.38
2022-09-09T03:38:46.997Z,98871.55
2022-09-09T03:43:54.000Z,98872.48
2022-09-09T03:49:01.683Z,98880.89
2022-09-09T03:54:09.646Z,98886.67
2022-09-09T03:59:18.049Z,98896.38
2022-09-09T04:04:25.326Z,98892.63
2022-09-09T04:09:32.271Z,98895.17
2022-09-09T04:14:40.576Z,98894.84
2022-09-09T04:19:47.801Z,98893.92
2022-09-09T04:24:54.945Z,98901.63
2022-09-09T04:30:02.098Z,98900.91
2022-09-09T04:35:10.080Z,98896.21
2022-09-09T04:40:16.801Z,98897.05
2022-09-09T04:45:23.803Z,98891.91
2022-09-09T04:50:33.101Z,98891.65
2022-09-09T04:55:39.962Z,98891.98
2022-09-09T05:00:47.658Z,98895.80
2022-09-09T05:05:55.143Z,98898.77
2022-09-09T05:11:01.984Z,98901.59
2022-09-09T05:16:12.458Z,98907.86
2022-09-09T05:21:20.839Z,98914.83
2022-09-09T05:26:27.754Z,98913.92
2022-09-09T05:31:35.200Z,98914.63
2022-09-09T05:36:42.779Z,98919.55
2022-09-09T05:41:49.958Z,98923.95
2022-09-09T05:46:57.447Z,98927.42
2022-09-09T05:52:06.188Z,98931.31
2022-09-09T05:57:13.293Z,98929.19
2022-09-09T06:02:21.027Z,98933.66
2022-09-09T06:07:28.202Z,98939.21
2022-09-09T06:12:35.229Z,98944.00
2022-09-09T06:17:43.322Z,98950.88
2022-09-09T06:22:50.826Z,98957.22
2022-09-09T06:27:58.042Z,98959.61
2022-09-09T06:33:04.927Z,98961.47
2022-09-09T06:38:11.716Z,98956.12
2022-09-09T06:43:19.319Z,98958.80
2022-09-09T06:48:27.777Z,98964.81
2022-09-09T06:53:35.897Z,98958.05
2022-09-09T06:58:44.213Z,98955.75
2022-09-09T07:03:53.031Z,98956.23
2022-09-09T07:09:01.898Z,98959.31
2022-09-09T07:14:09.973Z,98961.95
2022-09-09T07:19:17.749Z,98959.35
2022-09-09T07:24:25.464Z,98961.83
2022-09-09T07:29:32.766Z,98959.95
2022-09-09T07:34:39.828Z,98954.98
2022-09-09T07:39:46.758Z,98954.40
2022-09-09T07:44:55.993Z,98955.77
2022-09-09T07:50:03.297Z,98956.60
2022-09-09T07:55:11.024Z,98959.06
2022-09-09T08:00:20.617Z,98962.58
2022-09-09T08:05:27.987Z,98958.67
2022-09-09T08:10:34.953Z,98961.67
2022-09-09T08:15:42.766Z,98964.04
2022-09-09T08:20:49.497Z,98968.78
2022-09-09T08:25:56.196Z,98972.56
2022-09-09T08:31:11.689Z,98974.12
2022-09-09T08:36:20.585Z,98977.73
2022-09-09T08:41:43.388Z,98977.38
2022-09-09T08:47:00.229Z,98980.77
2022-09-09T08:53:31.342Z,98987.86
2022-09-09T08:58:46.065Z,98986.46
2022-09-09T09:04:02.769Z,98987.61
2022-09-09T09:09:19.572Z,98996.77
2022-09-09T09:19:37.915Z,98997.46
2022-09-09T09:29:18.754Z,98986.63
2022-09-09T09:34:30.460Z,98983.21
2022-09-09T09:45:37.511Z,98982.79
2022-09-09T09:50:56.010Z,98978.02
2022-09-09T09:56:08.250Z,98977.93
2022-09-09T10:01:23.890Z,98981.73
2022-09-09T10:06:51.363Z,98978.52
2022-09-09T10:12:23.324Z,98978.02
2022-09-09T10:18:07.772Z,98970.72
2022-09-09T10:23:35.334Z,98962.40
2022-09-09T10:29:11.605Z,98968.09
2022-09-09T10:34:44.223Z,98970.00
2022-09-09T10:40:01.725Z,98977.93
2022-09-09T10:45:36.457Z,98970.71
2022-09-09T10:51:04.384Z,98984.97
2022-09-09T10:56:33.821Z,98976.67
2022-09-09T11:02:03.779Z,98975.36
2022-09-09T11:07:22.828Z,98974.36
2022-09-09T11:12:55.835Z,98977.44
2022-09-09T11:18:51.199Z,98977.08
2022-09-09T11:24:11.909Z,98979.08
2022-09-09T11:30:56.172Z,98980.89
2022-09-09T11:39:56.313Z,98966.90
2022-09-09T11:45:23.178Z,98969.52
2022-09-09T11:50:41.426Z,98963.87
2022-09-09T11:55:49.565Z,98962.86
2022-09-09T12:00:57.228Z,98963.88
2022-09-09T12:06:16.066Z,98968.40
2022-09-09T12:11:32.406Z,98968.27
2022-09-09T12:16:41.607Z,98964.95
2022-09-09T12:21:57.651Z,98965.61
2022-09-09T12:27:14.367Z,98959.48
2022-09-09T12:32:26.962Z,98957.02
2022-09-09T12:37:38.529Z,98963.05
2022-09-09T12:42:46.236Z,98967.09
2022-09-09T12:47:58.009Z,98958.02
2022-09-09T12:53:13.870Z,98955.96
2022-09-09T12:58:22.817Z,98955.85
2022-09-09T13:03:31.549Z,98964.74
2022-09-09T13:08:39.504Z,98961.29
2022-09-09T13:13:53.400Z,98959.08
2022-09-09T13:19:02.654Z,98943.04
2022-09-09T13:24:36.582Z,98941.73
2022-09-09T13:29:53.676Z,98940.42
2022-09-09T13:35:04.048Z,98938.73
2022-09-09T13:40:23.988Z,98937.36
2022-09-09T13:45:36.011Z,98936.30
2022-09-09T13:53:51.203Z,98928.98
2022-09-09T13:58:58.651Z,98924.77
2022-09-09T14:04:07.693Z,98924.94
2022-09-09T14:09:19.741Z,98924.69
2022-09-09T14:14:27.092Z,98921.20
2022-09-09T14:19:34.016Z,98917.35
2022-09-09T14:24:40.930Z,98919.04
2022-09-09T14:29:48.133Z,98920.81
2022-09-09T14:34:55.309Z,98915.31
2022-09-09T14:40:02.813Z,98906.88
2022-09-09T14:45:11.808Z,98903.17
2022-09-09T14:50:21.939Z,98898.17
2022-09-09T14:55:30.364Z,98897.50
2022-09-09T15:00:37.605Z,98895.09
2022-09-09T15:05:44.615Z,98890.08
2022-09-09T15:10:53.534Z,98890.42
2022-09-09T15:16:08.238Z,98896.01
2022-09-09T15:21:16.631Z,98887.40
2022-09-09T15:26:24.053Z,98891.50
2022-09-09T15:31:32.948Z,98887.81
2022-09-09T15:36:41.432Z,98892.20
2022-09-09T15:41:49.427Z,98889.84
2022-09-09T15:46:56.947Z,98896.59
2022-09-09T15:52:04.752Z,98898.52
2022-09-09T15:57:13.515Z,98899.25
2022-09-09T16:02:20.877Z,98898.68
2022-09-09T16:07:27.794Z,98902.83
2022-09-09T16:12:35.095Z,98905.57
2022-09-09T16:17:41.985Z,98909.66
2022-09-09T16:22:48.779Z,98907.45
2022-09-09T16:27:56.298Z,98901.09
2022-09-09T16:33:03.535Z,98908.17
2022-09-09T16:38:11.330Z,98903.52
2022-09-09T16:43:18.412Z,98900.08
2022-09-09T16:48:25.399Z,98907.41
2022-09-09T16:53:32.190Z,98899.30
2022-09-09T16:58:40.499Z,98898.60
2022-09-09T17:03:47.649Z,98897.86
2022-09-09T17:09:00.372Z,98901.52
2022-09-09T17:14:10.487Z,98898.65
2022-09-09T17:19:18.067Z,98898.40
2022-09-09T17:24:26.411Z,98896.23
2022-09-09T17:29:33.424Z,98897.19
2022-09-09T17:34:40.793Z,98905.86
2022-09-09T17:39:48.908Z,98909.39
2022-09-09T17:44:56.195Z,98918.02
2022-09-09T17:50:03.576Z,98925.56
2022-09-09T17:55:13.107Z,98928.80
2022-09-09T18:00:21.340Z,98934.09
2022-09-09T18:05:28.119Z,98935.25
2022-09-09T18:10:35.612Z,98932.72
2022-09-09T18:15:49.134Z,98931.37
2022-09-09T18:21:06.722Z,98933.94
2022-09-09T18:26:16.854Z,98935.27
2022-09-09T18:31:25.749Z,98950.02
2022-09-09T18:36:34.953Z,98959.30
2022-09-09T18:41:43.781Z,98961.20
2022-09-09T18:46:52.371Z,98956.54
2022-09-09T18:51:59.830Z,98957.19
2022-09-09T18:57:07.685Z,98954.66
2022-09-09T19:02:15.057Z,98954.18
2022-09-09T19:07:22.163Z,98959.91
2022-09-09T19:12:29.302Z,98962.95
2022-09-09T19:17:37.476Z,98960.99
2022-09-09T19:22:44.485Z,98966.13
2022-09-09T19:27:52.563Z,98963.17
2022-09-09T19:32:59.716Z,98960.70
2022-09-09T19:38:08.034Z,98958.44
2022-09-09T19:43:15.341Z,98962.70
2022-09-09T19:48:22.136Z,98958.84
2022-09-09T19:53:29.456Z,98957.36
2022-09-09T19:58:40.286Z,98956.52
2022-09-09T20:03:49.361Z,98959.23
2022-09-09T20:08:58.040Z,98966.50
2022-09-09T20:14:04.998Z,98972.00
2022-09-09T20:19:16.219Z,98966.34
2022-09-09T20:24:24.216Z,98964.98
2022-09-09T20:29:31.034Z,98965.81
2022-09-09T20:34:38.186Z,98964.84
2022-09-09T20:39:46.503Z,98977.48
2022-09-09T20:44:53.657Z,98981.48
2022-09-09T20:50:00.732Z,98977.08
2022-09-09T20:55:09.375Z,98969.93
2022-09-09T21:00:17.493Z,98961.27
2022-09-09T21:05:25.663Z,98964.58
2022-09-09T21:10:32.895Z,98973.11
2022-09-09T21:15:42.451Z,98977.55
2022-09-09T21:20:50.558Z,98976.77
2022-09-09T21:25:57.925Z,98977.77
2022-09-09T21:31:06.590Z,98977.42
2022-09-09T21:36:15.641Z,98965.86
2022-09-09T21:41:23.076Z,98959.86
2022-09-09T21:46:30.139Z,98956.62
2022-09-09T21:51:37.300Z,98955.72
2022-09-09T21:56:45.750Z,98968.27
2022-09-09T22:01:53.433Z,98975.94
2022-09-09T22:07:00.408Z,98974.84
2022-09-09T22:12:08.207Z,98957.23
2022-09-09T22:17:15.763Z,98937.39
2022-09-09T22:22:26.478Z,98939.59
2022-09-09T22:27:33.763Z,98946.35
2022-09-09T22:32:41.146Z,98940.23
2022-09-09T22:37:48.508Z,98942.55
2022-09-09T22:42:57.210Z,98939.94
2022-09-09T22:48:05.209Z,98935.17
2022-09-09T22:53:14.682Z,98928.95
2022-09-09T22:58:22.529Z,98921.02
2022-09-09T23:03:30.378Z,98920.81
2022-09-09T23:08:38.545Z,98920.94
2022-09-09T23:13:49.729Z,98911.40
2022-09-09T23:18:56.951Z,98907.80
2022-09-09T23:24:05.524Z,98908.96
2022-09-09T23:29:14.790Z,98900.36
2022-09-09T23:34:22.554Z,98894.56
2022-09-09T23:39:29.756Z,98889.85
2022-09-09T23:44:36.946Z,98880.41
2022-09-09T23:49:44.668Z,98893.16
2022-09-09T23:54:52.323Z,98892.45
2022-09-09T23:59:59.172Z,98896.02
